sensor_id;sensor_type;location;lat;lon;timestamp;pressure;altitude;pressure_sealevel;temperature;humidity
29359;BME280;16347;53.232;6.556;2022-07-19T00:00:32;101901.75;;;28.93;38.54
29359;BME280;16347;53.232;6.556;2022-07-19T00:03:03;101906.72;;;28.91;38.44
29359;BME280;16347;53.232;6.556;2022-07-19T00:05:34;101906.72;;;28.91;38.46
29359;BME280;16347;53.232;6.556;2022-07-19T00:08:05;101901.13;;;28.91;38.01
29359;BME280;16347;53.232;6.556;2022-07-19T00:10:36;101896.91;;;28.89;38.13
29359;BME280;16347;53.232;6.556;2022-07-19T00:13:06;101904.22;;;28.90;38.18
29359;BME280;16347;53.232;6.556;2022-07-19T00:15:34;101898.00;;;28.88;38.48
29359;BME280;16347;53.232;6.556;2022-07-19T00:18:02;101900.56;;;28.89;38.01
29359;BME280;16347;53.232;6.556;2022-07-19T00:20:31;101900.78;;;28.88;38.27
29359;BME280;16347;53.232;6.556;2022-07-19T00:22:59;101898.00;;;28.88;38.20
29359;BME280;16347;53.232;6.556;2022-07-19T00:25:27;101896.22;;;28.82;38.49
29359;BME280;16347;53.232;6.556;2022-07-19T00:27:58;101899.63;;;28.84;38.65
29359;BME280;16347;53.232;6.556;2022-07-19T00:30:28;101898.16;;;28.81;37.93
29359;BME280;16347;53.232;6.556;2022-07-19T00:32:57;101896.50;;;28.80;37.92
29359;BME280;16347;53.232;6.556;2022-07-19T00:35:27;101894.19;;;28.77;38.14
29359;BME280;16347;53.232;6.556;2022-07-19T00:37:55;101899.53;;;28.79;38.06
29359;BME280;16347;53.232;6.556;2022-07-19T00:40:24;101892.22;;;28.78;37.62
29359;BME280;16347;53.232;6.556;2022-07-19T00:42:52;101893.94;;;28.79;37.79
29359;BME280;16347;53.232;6.556;2022-07-19T00:45:23;101894.44;;;28.76;37.39
29359;BME280;16347;53.232;6.556;2022-07-19T00:47:54;101884.94;;;28.77;37.46
29359;BME280;16347;53.232;6.556;2022-07-19T00:50:24;101888.84;;;28.76;37.90
29359;BME280;16347;53.232;6.556;2022-07-19T00:52:57;101886.91;;;28.76;37.99
29359;BME280;16347;53.232;6.556;2022-07-19T00:55:31;101890.28;;;28.78;37.77
29359;BME280;16347;53.232;6.556;2022-07-19T00:58:01;101888.25;;;28.74;37.76
29359;BME280;16347;53.232;6.556;2022-07-19T01:00:32;101894.69;;;28.74;37.42
29359;BME280;16347;53.232;6.556;2022-07-19T01:03:03;101893.84;;;28.74;37.39
29359;BME280;16347;53.232;6.556;2022-07-19T01:05:31;101898.00;;;28.71;37.58
29359;BME280;16347;53.232;6.556;2022-07-19T01:08:01;101895.47;;;28.70;37.28
29359;BME280;16347;53.232;6.556;2022-07-19T01:10:31;101895.97;;;28.67;37.56
29359;BME280;16347;53.232;6.556;2022-07-19T01:13:01;101896.44;;;28.64;37.52
29359;BME280;16347;53.232;6.556;2022-07-19T01:15:30;101904.22;;;28.62;38.00
29359;BME280;16347;53.232;6.556;2022-07-19T01:18:00;101903.13;;;28.63;37.66
29359;BME280;16347;53.232;6.556;2022-07-19T01:20:33;101898.63;;;28.62;37.70
29359;BME280;16347;53.232;6.556;2022-07-19T01:23:06;101902.56;;;28.61;37.66
29359;BME280;16347;53.232;6.556;2022-07-19T01:25:36;101889.56;;;28.54;37.63
29359;BME280;16347;53.232;6.556;2022-07-19T01:28:07;101891.19;;;28.50;38.12
29359;BME280;16347;53.232;6.556;2022-07-19T01:30:36;101896.44;;;28.47;38.06
29359;BME280;16347;53.232;6.556;2022-07-19T01:33:05;101894.22;;;28.49;37.93
29359;BME280;16347;53.232;6.556;2022-07-19T01:35:34;101892.78;;;28.46;38.23
29359;BME280;16347;53.232;6.556;2022-07-19T01:38:06;101883.78;;;28.44;38.32
29359;BME280;16347;53.232;6.556;2022-07-19T01:40:35;101882.69;;;28.45;37.86
29359;BME280;16347;53.232;6.556;2022-07-19T01:43:07;101882.09;;;28.43;38.09
29359;BME280;16347;53.232;6.556;2022-07-19T01:45:38;101885.47;;;28.45;38.41
29359;BME280;16347;53.232;6.556;2022-07-19T01:48:08;101877.81;;;28.41;38.18
29359;BME280;16347;53.232;6.556;2022-07-19T01:50:36;101883.41;;;28.41;38.27
29359;BME280;16347;53.232;6.556;2022-07-19T01:53:08;101887.06;;;28.41;38.13
29359;BME280;16347;53.232;6.556;2022-07-19T01:55:39;101891.00;;;28.40;38.16
29359;BME280;16347;53.232;6.556;2022-07-19T01:58:10;101884.78;;;28.38;38.24
29359;BME280;16347;53.232;6.556;2022-07-19T02:00:42;101886.72;;;28.38;38.23
29359;BME280;16347;53.232;6.556;2022-07-19T02:03:14;101884.78;;;28.38;38.01
29359;BME280;16347;53.232;6.556;2022-07-19T02:05:47;101887.00;;;28.36;38.31
29359;BME280;16347;53.232;6.556;2022-07-19T02:08:19;101883.59;;;28.34;38.22
29359;BME280;16347;53.232;6.556;2022-07-19T02:10:49;101886.38;;;28.34;38.59
29359;BME280;16347;53.232;6.556;2022-07-19T02:13:17;101886.66;;;28.33;38.53
29359;BME280;16347;53.232;6.556;2022-07-19T02:15:46;101880.19;;;28.32;38.39
29359;BME280;16347;53.232;6.556;2022-07-19T02:18:14;101878.75;;;28.30;38.63
29359;BME280;16347;53.232;6.556;2022-07-19T02:20:43;101882.41;;;28.30;38.68
29359;BME280;16347;53.232;6.556;2022-07-19T02:23:11;101872.81;;;28.26;38.56
29359;BME280;16347;53.232;6.556;2022-07-19T02:25:41;101876.47;;;28.27;38.56
29359;BME280;16347;53.232;6.556;2022-07-19T02:28:10;101884.00;;;28.26;38.48
29359;BME280;16347;53.232;6.556;2022-07-19T02:30:39;101878.66;;;28.25;38.47
29359;BME280;16347;53.232;6.556;2022-07-19T02:33:07;101878.66;;;28.25;38.37
29359;BME280;16347;53.232;6.556;2022-07-19T02:35:36;101875.84;;;28.25;38.56
29359;BME280;16347;53.232;6.556;2022-07-19T02:38:06;101873.56;;;28.22;38.57
29359;BME280;16347;53.232;6.556;2022-07-19T02:40:36;101877.22;;;28.22;38.59
29359;BME280;16347;53.232;6.556;2022-07-19T02:43:06;101862.66;;;28.20;38.55
29359;BME280;16347;53.232;6.556;2022-07-19T02:45:37;101858.13;;;28.19;38.64
29359;BME280;16347;53.232;6.556;2022-07-19T02:48:08;101854.50;;;28.19;38.85
29359;BME280;16347;53.232;6.556;2022-07-19T02:50:40;101864.47;;;28.15;38.61
29359;BME280;16347;53.232;6.556;2022-07-19T02:53:11;101865.59;;;28.14;38.72
29359;BME280;16347;53.232;6.556;2022-07-19T02:55:43;101869.72;;;28.11;38.31
29359;BME280;16347;53.232;6.556;2022-07-19T02:58:17;101862.44;;;28.10;38.39
29359;BME280;16347;53.232;6.556;2022-07-19T03:00:48;101862.69;;;28.09;38.44
29359;BME280;16347;53.232;6.556;2022-07-19T03:03:17;101871.31;;;28.07;38.92
29359;BME280;16347;53.232;6.556;2022-07-19T03:06:04;101866.56;;;28.08;38.84
29359;BME280;16347;53.232;6.556;2022-07-19T03:08:35;101858.44;;;28.06;38.99
29359;BME280;16347;53.232;6.556;2022-07-19T03:11:06;101865.38;;;28.03;38.63
29359;BME280;16347;53.232;6.556;2022-07-19T03:13:39;101855.84;;;28.04;38.51
29359;BME280;16347;53.232;6.556;2022-07-19T03:16:11;101857.22;;;28.02;38.46
29359;BME280;16347;53.232;6.556;2022-07-19T03:18:43;101862.22;;;28.00;38.56
29359;BME280;16347;53.232;6.556;2022-07-19T03:21:14;101856.50;;;27.95;38.44
29359;BME280;16347;53.232;6.556;2022-07-19T03:23:46;101847.28;;;27.94;37.88
29359;BME280;16347;53.232;6.556;2022-07-19T03:26:20;101852.50;;;27.91;38.38
29359;BME280;16347;53.232;6.556;2022-07-19T03:28:53;101856.16;;;27.91;38.70
29359;BME280;16347;53.232;6.556;2022-07-19T03:31:24;101859.22;;;27.90;38.47
29359;BME280;16347;53.232;6.556;2022-07-19T03:33:55;101856.66;;;27.88;38.55
29359;BME280;16347;53.232;6.556;2022-07-19T03:36:25;101859.69;;;27.87;38.35
29359;BME280;16347;53.232;6.556;2022-07-19T03:38:58;101855.81;;;27.88;38.47
29359;BME280;16347;53.232;6.556;2022-07-19T03:41:32;101861.66;;;27.86;38.27
29359;BME280;16347;53.232;6.556;2022-07-19T03:44:06;101858.00;;;27.86;38.65
29359;BME280;16347;53.232;6.556;2022-07-19T03:46:40;101864.97;;;27.83;38.35
29359;BME280;16347;53.232;6.556;2022-07-19T03:49:11;101857.66;;;27.82;38.25
29359;BME280;16347;53.232;6.556;2022-07-19T03:51:42;101859.84;;;27.80;38.39
29359;BME280;16347;53.232;6.556;2022-07-19T03:54:14;101858.75;;;27.81;38.45
29359;BME280;16347;53.232;6.556;2022-07-19T03:56:48;101857.88;;;27.81;38.42
29359;BME280;16347;53.232;6.556;2022-07-19T03:59:20;101853.16;;;27.81;38.20
29359;BME280;16347;53.232;6.556;2022-07-19T04:01:52;101860.94;;;27.79;38.43
29359;BME280;16347;53.232;6.556;2022-07-19T04:04:22;101859.84;;;27.80;38.63
29359;BME280;16347;53.232;6.556;2022-07-19T04:06:54;101863.75;;;27.79;38.18
29359;BME280;16347;53.232;6.556;2022-07-19T04:09:25;101867.97;;;27.82;38.48
29359;BME280;16347;53.232;6.556;2022-07-19T04:11:56;101859.00;;;27.80;38.76
29359;BME280;16347;53.232;6.556;2022-07-19T04:14:30;101857.88;;;27.81;38.55
29359;BME280;16347;53.232;6.556;2022-07-19T04:17:01;101857.31;;;27.79;38.39
29359;BME280;16347;53.232;6.556;2022-07-19T04:19:33;101861.44;;;27.76;38.47
29359;BME280;16347;53.232;6.556;2022-07-19T04:22:06;101851.94;;;27.77;38.33
29359;BME280;16347;53.232;6.556;2022-07-19T04:24:37;101851.34;;;27.75;38.44
29359;BME280;16347;53.232;6.556;2022-07-19T04:27:14;101862.31;;;27.77;38.12
29359;BME280;16347;53.232;6.556;2022-07-19T04:29:47;101865.56;;;27.74;38.32
29359;BME280;16347;53.232;6.556;2022-07-19T04:32:18;101858.88;;;27.75;38.07
29359;BME280;16347;53.232;6.556;2022-07-19T04:34:48;101863.91;;;27.73;38.30
29359;BME280;16347;53.232;6.556;2022-07-19T04:37:21;101863.63;;;27.74;38.20
29359;BME280;16347;53.232;6.556;2022-07-19T04:39:53;101864.47;;;27.75;38.26
29359;BME280;16347;53.232;6.556;2022-07-19T04:42:23;101858.03;;;27.74;38.13
29359;BME280;16347;53.232;6.556;2022-07-19T04:44:56;101853.31;;;27.75;38.00
29359;BME280;16347;53.232;6.556;2022-07-19T04:47:28;101852.81;;;27.78;38.49
29359;BME280;16347;53.232;6.556;2022-07-19T04:49:59;101854.00;;;27.82;38.17
29359;BME280;16347;53.232;6.556;2022-07-19T04:52:29;101849.84;;;27.84;38.62
29359;BME280;16347;53.232;6.556;2022-07-19T04:55:01;101854.94;;;27.87;38.72
29359;BME280;16347;53.232;6.556;2022-07-19T04:57:31;101859.81;;;27.92;38.37
29359;BME280;16347;53.232;6.556;2022-07-19T05:00:05;101861.25;;;27.94;38.42
29359;BME280;16347;53.232;6.556;2022-07-19T05:02:39;101868.28;;;27.97;38.55
29359;BME280;16347;53.232;6.556;2022-07-19T05:05:12;101863.31;;;27.99;38.41
29359;BME280;16347;53.232;6.556;2022-07-19T05:07:44;101861.94;;;28.01;38.04
29359;BME280;16347;53.232;6.556;2022-07-19T05:10:16;101865.09;;;28.05;38.07
29359;BME280;16347;53.232;6.556;2022-07-19T05:12:48;101863.38;;;28.04;37.71
29359;BME280;16347;53.232;6.556;2022-07-19T05:15:22;101862.91;;;28.07;37.37
29359;BME280;16347;53.232;6.556;2022-07-19T05:17:52;101863.16;;;28.06;36.69
29359;BME280;16347;53.232;6.556;2022-07-19T05:20:22;101856.25;;;28.08;36.81
29359;BME280;16347;53.232;6.556;2022-07-19T05:22:52;101861.59;;;28.10;36.50
29359;BME280;16347;53.232;6.556;2022-07-19T05:25:21;101865.47;;;28.09;36.44
29359;BME280;16347;53.232;6.556;2022-07-19T05:27:51;101869.13;;;28.09;36.17
29359;BME280;16347;53.232;6.556;2022-07-19T05:30:21;101873.38;;;28.12;36.31
29359;BME280;16347;53.232;6.556;2022-07-19T05:32:49;101872.28;;;28.13;35.85
29359;BME280;16347;53.232;6.556;2022-07-19T05:35:18;101872.28;;;28.13;35.67
29359;BME280;16347;53.232;6.556;2022-07-19T05:37:48;101867.53;;;28.13;35.78
29359;BME280;16347;53.232;6.556;2022-07-19T05:40:18;101864.75;;;28.13;35.82
29359;BME280;16347;53.232;6.556;2022-07-19T05:42:49;101869.22;;;28.14;35.53
29359;BME280;16347;53.232;6.556;2022-07-19T05:45:21;101863.63;;;28.14;35.80
29359;BME280;16347;53.232;6.556;2022-07-19T05:47:52;101864.47;;;28.15;35.44
29359;BME280;16347;53.232;6.556;2022-07-19T05:50:23;101873.47;;;28.17;35.14
29359;BME280;16347;53.232;6.556;2022-07-19T05:52:51;101865.31;;;28.15;35.31
29359;BME280;16347;53.232;6.556;2022-07-19T05:55:22;101870.06;;;28.15;35.06
29359;BME280;16347;53.232;6.556;2022-07-19T05:57:52;101853.06;;;28.16;35.58
29359;BME280;16347;53.232;6.556;2022-07-19T06:00:22;101862.28;;;28.17;35.36
29359;BME280;16347;53.232;6.556;2022-07-19T06:02:51;101857.53;;;28.17;35.41
29359;BME280;16347;53.232;6.556;2022-07-19T06:05:21;101858.13;;;28.19;35.59
29359;BME280;16347;53.232;6.556;2022-07-19T06:07:51;101866.53;;;28.19;35.88
29359;BME280;16347;53.232;6.556;2022-07-19T06:10:20;101862.66;;;28.20;35.91
29359;BME280;16347;53.232;6.556;2022-07-19T06:12:49;101851.69;;;28.19;36.16
29359;BME280;16347;53.232;6.556;2022-07-19T06:15:24;101846.44;;;28.22;36.33
29359;BME280;16347;53.232;6.556;2022-07-19T06:17:55;101851.19;;;28.22;36.12
29359;BME280;16347;53.232;6.556;2022-07-19T06:20:35;101848.38;;;28.22;36.18
29359;BME280;16347;53.232;6.556;2022-07-19T06:23:04;101850.34;;;28.21;36.35
29359;BME280;16347;53.232;6.556;2022-07-19T06:25:36;101850.94;;;28.23;36.56
29359;BME280;16347;53.232;6.556;2022-07-19T06:28:06;101850.94;;;28.23;36.65
29359;BME280;16347;53.232;6.556;2022-07-19T06:30:38;101849.00;;;28.24;37.05
29359;BME280;16347;53.232;6.556;2022-07-19T06:33:09;101850.44;;;28.26;37.35
29359;BME280;16347;53.232;6.556;2022-07-19T06:35:41;101853.47;;;28.25;36.89
29359;BME280;16347;53.232;6.556;2022-07-19T06:38:12;101854.34;;;28.25;36.92
29359;BME280;16347;53.232;6.556;2022-07-19T06:40:44;101853.25;;;28.26;37.06
29359;BME280;16347;53.232;6.556;2022-07-19T06:43:14;101845.94;;;28.25;37.14
29359;BME280;16347;53.232;6.556;2022-07-19T06:45:46;101846.53;;;28.27;37.13
29359;BME280;16347;53.232;6.556;2022-07-19T06:48:17;101850.44;;;28.26;37.35
29359;BME280;16347;53.232;6.556;2022-07-19T06:50:47;101853.81;;;28.28;36.77
29359;BME280;16347;53.232;6.556;2022-07-19T06:53:18;101854.09;;;28.27;36.46
29359;BME280;16347;53.232;6.556;2022-07-19T06:55:50;101858.31;;;28.29;36.54
29359;BME280;16347;53.232;6.556;2022-07-19T06:58:21;101856.63;;;28.28;36.60
29359;BME280;16347;53.232;6.556;2022-07-19T07:00:52;101851.88;;;28.29;36.87
29359;BME280;16347;53.232;6.556;2022-07-19T07:03:23;101846.06;;;28.30;36.99
29359;BME280;16347;53.232;6.556;2022-07-19T07:05:55;101844.94;;;28.31;36.66
29359;BME280;16347;53.232;6.556;2022-07-19T07:08:27;101848.56;;;28.32;36.90
29359;BME280;16347;53.232;6.556;2022-07-19T07:10:58;101853.31;;;28.31;36.53
29359;BME280;16347;53.232;6.556;2022-07-19T07:13:29;101855.25;;;28.31;36.06
29359;BME280;16347;53.232;6.556;2022-07-19T07:15:58;101841.88;;;28.33;36.19
29359;BME280;16347;53.232;6.556;2022-07-19T07:18:27;101848.06;;;28.35;36.62
29359;BME280;16347;53.232;6.556;2022-07-19T07:20:55;101838.00;;;28.34;36.46
29359;BME280;16347;53.232;6.556;2022-07-19T07:23:23;101842.47;;;28.35;36.60
29359;BME280;16347;53.232;6.556;2022-07-19T07:25:51;101839.69;;;28.35;36.54
29359;BME280;16347;53.232;6.556;2022-07-19T07:28:20;101837.50;;;28.37;36.88
29359;BME280;16347;53.232;6.556;2022-07-19T07:30:52;101836.13;;;28.39;37.00
29359;BME280;16347;53.232;6.556;2022-07-19T07:33:21;101833.34;;;28.39;37.12
29359;BME280;16347;53.232;6.556;2022-07-19T07:35:50;101829.19;;;28.42;36.73
29359;BME280;16347;53.232;6.556;2022-07-19T07:38:18;101827.81;;;28.44;36.78
29359;BME280;16347;53.232;6.556;2022-07-19T07:40:46;101824.78;;;28.46;36.60
29359;BME280;16347;53.232;6.556;2022-07-19T07:43:14;101821.13;;;28.45;36.54
29359;BME280;16347;53.232;6.556;2022-07-19T07:45:42;101822.56;;;28.48;36.69
29359;BME280;16347;53.232;6.556;2022-07-19T07:48:10;101820.63;;;28.48;37.06
29359;BME280;16347;53.232;6.556;2022-07-19T07:50:40;101825.69;;;28.51;36.75
29359;BME280;16347;53.232;6.556;2022-07-19T07:53:08;101817.06;;;28.53;36.55
29359;BME280;16347;53.232;6.556;2022-07-19T07:55:36;101822.38;;;28.54;36.85
29359;BME280;16347;53.232;6.556;2022-07-19T07:58:07;101821.88;;;28.58;36.47
29359;BME280;16347;53.232;6.556;2022-07-19T08:00:36;101823.34;;;28.60;36.11
29359;BME280;16347;53.232;6.556;2022-07-19T08:03:04;101807.13;;;28.62;36.45
29359;BME280;16347;53.232;6.556;2022-07-19T08:05:33;101815.28;;;28.64;36.78
29359;BME280;16347;53.232;6.556;2022-07-19T08:08:03;101813.06;;;28.66;37.00
29359;BME280;16347;53.232;6.556;2022-07-19T08:10:31;101810.06;;;28.67;36.63
29359;BME280;16347;53.232;6.556;2022-07-19T08:13:03;101807.59;;;28.71;36.71
29359;BME280;16347;53.232;6.556;2022-07-19T08:15:36;101801.50;;;28.74;36.79
29359;BME280;16347;53.232;6.556;2022-07-19T08:18:09;101797.56;;;28.75;36.70
29359;BME280;16347;53.232;6.556;2022-07-19T08:20:40;101796.22;;;28.77;37.07
29359;BME280;16347;53.232;6.556;2022-07-19T08:23:11;101794.84;;;28.80;37.09
29359;BME280;16347;53.232;6.556;2022-07-19T08:25:42;101798.84;;;28.84;36.42
29359;BME280;16347;53.232;6.556;2022-07-19T08:28:12;101796.88;;;28.84;36.41
29359;BME280;16347;53.232;6.556;2022-07-19T08:30:42;101798.91;;;28.89;36.86
29359;BME280;16347;53.232;6.556;2022-07-19T08:33:32;101796.72;;;28.91;36.51
29359;BME280;16347;53.232;6.556;2022-07-19T08:36:03;101791.69;;;28.93;36.83
29359;BME280;16347;53.232;6.556;2022-07-19T08:38:34;101799.56;;;28.96;36.52
29359;BME280;16347;53.232;6.556;2022-07-19T08:41:04;101795.69;;;28.97;36.07
29359;BME280;16347;53.232;6.556;2022-07-19T08:43:34;101792.09;;;29.01;36.26
29359;BME280;16347;53.232;6.556;2022-07-19T08:46:04;101786.81;;;29.05;36.10
29359;BME280;16347;53.232;6.556;2022-07-19T08:48:34;101794.69;;;29.08;36.44
29359;BME280;16347;53.232;6.556;2022-07-19T08:51:19;101791.97;;;29.13;35.89
29359;BME280;16347;53.232;6.556;2022-07-19T08:53:51;101792.31;;;29.17;35.69
29359;BME280;16347;53.232;6.556;2022-07-19T08:56:21;101801.56;;;29.17;36.13
29359;BME280;16347;53.232;6.556;2022-07-19T08:59:08;101790.69;;;29.21;35.78
29359;BME280;16347;53.232;6.556;2022-07-19T09:01:39;101790.78;;;29.26;35.96
29359;BME280;16347;53.232;6.556;2022-07-19T09:04:12;101794.75;;;29.30;35.92
29359;BME280;16347;53.232;6.556;2022-07-19T09:06:44;101796.78;;;29.34;35.35
29359;BME280;16347;53.232;6.556;2022-07-19T09:09:17;101799.19;;;29.47;35.73
29359;BME280;16347;53.232;6.556;2022-07-19T09:11:50;101791.81;;;29.41;36.00
29359;BME280;16347;53.232;6.556;2022-07-19T09:14:20;101782.84;;;29.39;35.51
29359;BME280;16347;53.232;6.556;2022-07-19T09:16:55;101784.34;;;29.47;35.18
29359;BME280;16347;53.232;6.556;2022-07-19T09:19:26;101783.81;;;29.50;34.80
29359;BME280;16347;53.232;6.556;2022-07-19T09:21:59;101788.66;;;29.55;34.87
29359;BME280;16347;53.232;6.556;2022-07-19T09:24:31;101790.06;;;29.57;34.17
29359;BME280;16347;53.232;6.556;2022-07-19T09:27:04;101786.75;;;29.60;34.13
29359;BME280;16347;53.232;6.556;2022-07-19T09:29:37;101785.97;;;29.65;34.64
29359;BME280;16347;53.232;6.556;2022-07-19T09:32:11;101775.91;;;29.69;34.82
29359;BME280;16347;53.232;6.556;2022-07-19T09:34:48;101778.78;;;29.74;35.29
29359;BME280;16347;53.232;6.556;2022-07-19T09:37:21;101778.50;;;29.75;35.14
29359;BME280;16347;53.232;6.556;2022-07-19T09:39:53;101779.41;;;29.81;35.51
29359;BME280;16347;53.232;6.556;2022-07-19T09:42:24;101789.50;;;29.82;35.92
29359;BME280;16347;53.232;6.556;2022-07-19T09:45:04;101777.53;;;29.86;34.92
29359;BME280;16347;53.232;6.556;2022-07-19T09:47:34;101775.03;;;29.90;34.31
29359;BME280;16347;53.232;6.556;2022-07-19T09:50:06;101771.72;;;29.93;34.57
29359;BME280;16347;53.232;6.556;2022-07-19T09:52:37;101769.50;;;29.95;34.89
29359;BME280;16347;53.232;6.556;2022-07-19T09:55:28;101771.78;;;29.98;33.01
29359;BME280;16347;53.232;6.556;2022-07-19T09:57:59;101774.28;;;29.99;32.28
29359;BME280;16347;53.232;6.556;2022-07-19T10:00:29;101764.78;;;30.00;32.17
29359;BME280;16347;53.232;6.556;2022-07-19T10:03:00;101760.34;;;30.05;32.52
29359;BME280;16347;53.232;6.556;2022-07-19T10:05:30;101760.06;;;30.06;32.18
29359;BME280;16347;53.232;6.556;2022-07-19T10:07:59;101764.03;;;30.10;31.18
29359;BME280;16347;53.232;6.556;2022-07-19T10:10:29;101757.34;;;30.16;31.55
29359;BME280;16347;53.232;6.556;2022-07-19T10:12:59;101766.38;;;30.23;30.96
29359;BME280;16347;53.232;6.556;2022-07-19T10:15:31;101757.44;;;30.26;31.57
29359;BME280;16347;53.232;6.556;2022-07-19T10:18:11;101761.41;;;30.30;31.18
29359;BME280;16347;53.232;6.556;2022-07-19T10:20:43;101761.16;;;30.32;31.00
29359;BME280;16347;53.232;6.556;2022-07-19T10:23:15;101760.00;;;30.33;30.91
29359;BME280;16347;53.232;6.556;2022-07-19T10:25:47;101765.69;;;30.38;30.43
29359;BME280;16347;53.232;6.556;2022-07-19T10:28:30;101762.09;;;30.42;30.00
29359;BME280;16347;53.232;6.556;2022-07-19T10:31:24;101750.59;;;30.44;29.97
29359;BME280;16347;53.232;6.556;2022-07-19T10:33:58;101762.16;;;30.47;30.16
29359;BME280;16347;53.232;6.556;2022-07-19T10:36:35;101759.06;;;30.49;29.84
29359;BME280;16347;53.232;6.556;2022-07-19T10:39:26;101743.13;;;30.55;29.23
29359;BME280;16347;53.232;6.556;2022-07-19T10:45:11;101743.72;;;30.62;28.55
29359;BME280;16347;53.232;6.556;2022-07-19T10:48:07;101733.94;;;30.69;28.73
29359;BME280;16347;53.232;6.556;2022-07-19T10:53:53;101725.56;;;30.79;28.43
29359;BME280;16347;53.232;6.556;2022-07-19T10:56:27;101720.81;;;30.80;29.60
29359;BME280;16347;53.232;6.556;2022-07-19T10:58:59;101732.03;;;30.75;29.59
29359;BME280;16347;53.232;6.556;2022-07-19T11:01:31;101720.81;;;30.80;28.62
29359;BME280;16347;53.232;6.556;2022-07-19T11:04:23;101715.53;;;30.93;28.47
29359;BME280;16347;53.232;6.556;2022-07-19T11:07:18;101720.94;;;31.00;29.52
29359;BME280;16347;53.232;6.556;2022-07-19T11:09:51;101721.75;;;30.95;28.91
29359;BME280;16347;53.232;6.556;2022-07-19T11:12:32;101712.50;;;31.00;28.57
29359;BME280;16347;53.232;6.556;2022-07-19T11:15:06;101707.19;;;31.03;29.18
29359;BME280;16347;53.232;6.556;2022-07-19T11:17:53;101705.84;;;31.16;28.96
29359;BME280;16347;53.232;6.556;2022-07-19T11:20:24;101697.41;;;31.16;28.56
29359;BME280;16347;53.232;6.556;2022-07-19T11:22:54;101710.09;;;31.19;28.85
29359;BME280;16347;53.232;6.556;2022-07-19T11:25:27;101706.44;;;31.18;29.58
29359;BME280;16347;53.232;6.556;2022-07-19T11:27:59;101697.75;;;31.25;29.96
29359;BME280;16347;53.232;6.556;2022-07-19T11:30:31;101695.53;;;31.32;29.58
29359;BME280;16347;53.232;6.556;2022-07-19T11:33:02;101701.13;;;31.37;28.13
29359;BME280;16347;53.232;6.556;2022-07-19T11:35:31;101701.47;;;31.45;27.05
29359;BME280;16347;53.232;6.556;2022-07-19T11:38:00;101680.63;;;31.46;27.00
29359;BME280;16347;53.232;6.556;2022-07-19T11:40:34;101679.84;;;31.51;28.46
29359;BME280;16347;53.232;6.556;2022-07-19T11:43:05;101680.69;;;31.51;29.62
29359;BME280;16347;53.232;6.556;2022-07-19T11:45:49;101675.66;;;31.59;30.10
29359;BME280;16347;53.232;6.556;2022-07-19T11:48:26;101674.53;;;31.65;30.19
29359;BME280;16347;53.232;6.556;2022-07-19T11:51:06;101667.78;;;31.71;28.53
29359;BME280;16347;53.232;6.556;2022-07-19T11:53:38;101664.44;;;31.79;28.41
29359;BME280;16347;53.232;6.556;2022-07-19T11:56:18;101670.03;;;31.84;28.28
29359;BME280;16347;53.232;6.556;2022-07-19T11:58:47;101669.78;;;31.90;29.68
29359;BME280;16347;53.232;6.556;2022-07-19T12:01:24;101663.59;;;31.98;30.42
29359;BME280;16347;53.232;6.556;2022-07-19T12:03:55;101653.19;;;32.14;30.19
29359;BME280;16347;53.232;6.556;2022-07-19T12:06:36;101656.88;;;32.20;30.29
29359;BME280;16347;53.232;6.556;2022-07-19T12:09:07;101650.94;;;32.26;30.03
29359;BME280;16347;53.232;6.556;2022-07-19T12:11:41;101651.75;;;32.42;28.79
29359;BME280;16347;53.232;6.556;2022-07-19T12:14:20;101650.34;;;32.49;28.56
29359;BME280;16347;53.232;6.556;2022-07-19T12:17:09;101653.69;;;32.57;27.98
29359;BME280;16347;53.232;6.556;2022-07-19T12:19:39;101651.19;;;32.60;29.08
29359;BME280;16347;53.232;6.556;2022-07-19T12:22:29;101649.16;;;32.76;29.41
29359;BME280;16347;53.232;6.556;2022-07-19T12:25:06;101651.13;;;32.80;29.55
29359;BME280;16347;53.232;6.556;2022-07-19T12:27:38;101648.25;;;32.90;29.53
29359;BME280;16347;53.232;6.556;2022-07-19T12:30:18;101647.34;;;33.10;29.26
29359;BME280;16347;53.232;6.556;2022-07-19T12:32:52;101640.25;;;33.18;29.12
29359;BME280;16347;53.232;6.556;2022-07-19T12:35:22;101635.41;;;33.28;28.05
29359;BME280;16347;53.232;6.556;2022-07-19T12:38:03;101637.53;;;33.46;26.48
29359;BME280;16347;53.232;6.556;2022-07-19T12:40:39;101629.25;;;33.65;24.17
29359;BME280;16347;53.232;6.556;2022-07-19T12:43:11;101627.53;;;33.69;23.77
29359;BME280;16347;53.232;6.556;2022-07-19T12:45:52;101617.59;;;33.77;23.30
29359;BME280;16347;53.232;6.556;2022-07-19T12:49:31;101619.16;;;33.93;22.77
29359;BME280;16347;53.232;6.556;2022-07-19T12:52:27;101620.19;;;34.02;24.37
29359;BME280;16347;53.232;6.556;2022-07-19T12:55:04;101620.09;;;34.17;25.75
29359;BME280;16347;53.232;6.556;2022-07-19T12:57:49;101609.53;;;34.28;25.82
29359;BME280;16347;53.232;6.556;2022-07-19T13:00:22;101616.72;;;34.39;24.76
29359;BME280;16347;53.232;6.556;2022-07-19T13:02:51;101615.13;;;34.57;23.35
29359;BME280;16347;53.232;6.556;2022-07-19T13:05:22;101618.94;;;34.71;21.50
29359;BME280;16347;53.232;6.556;2022-07-19T13:07:50;101607.81;;;34.79;21.23
29359;BME280;16347;53.232;6.556;2022-07-19T13:10:19;101610.81;;;35.07;21.29
29359;BME280;16347;53.232;6.556;2022-07-19T13:12:49;101605.50;;;35.05;21.07
29359;BME280;16347;53.232;6.556;2022-07-19T13:15:20;101602.31;;;35.12;21.38
29359;BME280;16347;53.232;6.556;2022-07-19T13:17:48;101603.69;;;35.14;20.92
29359;BME280;16347;53.232;6.556;2022-07-19T13:20:26;101601.19;;;35.31;20.97
29359;BME280;16347;53.232;6.556;2022-07-19T13:22:55;101599.56;;;35.44;20.58